createdAt,value
2022-11-02T00:02:04.613Z,11.81
2022-11-02T00:06:06.165Z,11.72
2022-11-02T00:10:09.047Z,11.65
2022-11-02T00:14:10.446Z,11.83
2022-11-02T00:18:13.002Z,11.69
2022-11-02T00:22:14.685Z,11.75
2022-11-02T00:26:16.787Z,11.51
2022-11-02T00:30:18.745Z,11.79
2022-11-02T00:34:21.139Z,11.58
2022-11-02T00:38:22.806Z,11.89
2022-11-02T00:42:25.242Z,11.97
2022-11-02T00:46:26.940Z,11.69
2022-11-02T00:50:28.475Z,11.65
2022-11-02T00:54:30.099Z,11.80
2022-11-02T00:58:31.541Z,11.73
2022-11-02T01:02:34.115Z,11.72
2022-11-02T01:06:37.568Z,11.42
2022-11-02T01:10:40.602Z,11.51
2022-11-02T01:14:49.883Z,11.49
2022-11-02T01:18:55.898Z,11.60
2022-11-02T01:22:59.061Z,11.81
2022-11-02T01:27:00.579Z,11.74
2022-11-02T01:31:02.358Z,11.69
2022-11-02T01:35:04.102Z,11.78
2022-11-02T01:39:06.098Z,11.69
2022-11-02T01:43:33.203Z,11.66
2022-11-02T01:47:39.027Z,11.75
2022-11-02T01:51:48.690Z,11.77
2022-11-02T01:55:50.769Z,11.71
2022-11-02T02:00:00.489Z,11.63
2022-11-02T02:04:02.436Z,11.45
2022-11-02T02:08:08.242Z,11.58
2022-11-02T02:12:12.149Z,11.50
2022-11-02T02:16:23.424Z,11.53
2022-11-02T02:20:34.765Z,11.62
2022-11-02T02:25:20.562Z,11.63
2022-11-02T02:29:43.402Z,11.42
2022-11-02T02:33:58.138Z,11.24
2022-11-02T02:38:10.025Z,11.31
2022-11-02T02:42:31.727Z,11.54
2022-11-02T02:46:55.921Z,11.37
2022-11-02T02:51:04.678Z,11.35
2022-11-02T02:55:08.092Z,11.40
2022-11-02T02:59:30.850Z,11.41
2022-11-02T03:03:35.217Z,11.38
2022-11-02T03:07:36.746Z,11.66
2022-11-02T03:12:03.073Z,11.56
2022-11-02T03:16:21.326Z,11.58
2022-11-02T03:20:39.426Z,11.55
2022-11-02T03:24:50.561Z,11.28
2022-11-02T03:28:57.899Z,11.22
2022-11-02T03:33:08.993Z,11.34
2022-11-02T03:37:11.055Z,11.15
2022-11-02T03:41:14.345Z,11.22
2022-11-02T03:45:20.979Z,11.00
2022-11-02T03:49:24.714Z,11.14
2022-11-02T03:53:37.688Z,11.13
2022-11-02T03:57:46.653Z,11.30
2022-11-02T04:01:52.467Z,11.36
2022-11-02T04:05:55.736Z,11.32
2022-11-02T04:10:02.876Z,11.22
2022-11-02T04:14:24.709Z,11.14
2022-11-02T04:18:45.601Z,11.12
2022-11-02T04:23:05.800Z,11.34
2022-11-02T04:27:07.194Z,11.02
2022-11-02T04:31:08.754Z,11.12
2022-11-02T04:35:13.530Z,11.12
2022-11-02T04:39:15.268Z,11.14
2022-11-02T04:43:17.314Z,10.76
2022-11-02T04:47:18.948Z,10.68
2022-11-02T04:51:21.625Z,10.96
2022-11-02T04:55:23.160Z,11.00
2022-11-02T04:59:25.028Z,10.90
2022-11-02T05:03:27.479Z,11.02
2022-11-02T05:07:29.472Z,11.01
2022-11-02T05:11:31.394Z,10.94
2022-11-02T05:15:33.248Z,10.91
2022-11-02T05:19:35.787Z,11.01
2022-11-02T05:23:39.724Z,10.97
2022-11-02T05:27:41.341Z,11.23
2022-11-02T05:31:43.363Z,10.91
2022-11-02T05:35:44.970Z,11.09
2022-11-02T05:39:49.504Z,11.18
2022-11-02T05:43:52.339Z,11.46
2022-11-02T05:47:55.878Z,11.44
2022-11-02T05:51:57.637Z,11.61
2022-11-02T05:56:00.614Z,11.64
2022-11-02T06:00:06.502Z,11.74
2022-11-02T06:04:14.037Z,11.85
2022-11-02T06:08:15.500Z,11.80
2022-11-02T06:12:17.106Z,11.58
2022-11-02T06:16:23.013Z,11.80
2022-11-02T06:20:24.965Z,11.77
2022-11-02T06:24:26.541Z,11.81
2022-11-02T06:28:29.119Z,11.84
2022-11-02T06:32:30.882Z,11.95
2022-11-02T06:36:32.405Z,11.89
2022-11-02T06:40:33.865Z,11.73
2022-11-02T06:44:35.285Z,11.91
2022-11-02T06:48:36.764Z,11.50
2022-11-02T06:52:46.729Z,11.70
2022-11-02T06:56:48.201Z,11.80
2022-11-02T07:00:49.962Z,11.61
2022-11-02T07:04:51.678Z,11.59
2022-11-02T07:08:53.913Z,11.82
2022-11-02T07:12:56.856Z,11.87
2022-11-02T07:16:58.335Z,11.82
2022-11-02T07:20:59.773Z,11.94
2022-11-02T07:25:01.173Z,11.97
2022-11-02T07:29:02.646Z,11.82
2022-11-02T07:33:04.511Z,11.85
2022-11-02T07:37:06.300Z,11.82
2022-11-02T07:41:07.850Z,11.93
2022-11-02T07:45:09.683Z,12.28
2022-11-02T07:49:11.113Z,12.51
2022-11-02T07:53:13.224Z,12.57
2022-11-02T07:57:14.969Z,12.71
2022-11-02T08:01:16.617Z,13.06
2022-11-02T08:05:18.380Z,13.14
2022-11-02T08:09:19.874Z,13.62
2022-11-02T08:13:23.614Z,13.60
2022-11-02T08:17:27.470Z,13.50
2022-11-02T08:21:28.966Z,13.66
2022-11-02T08:25:31.105Z,13.77
2022-11-02T08:29:35.421Z,13.90
2022-11-02T08:33:36.831Z,14.10
2022-11-02T08:37:38.283Z,14.29
2022-11-02T08:41:39.730Z,14.12
2022-11-02T08:46:13.196Z,14.21
2022-11-02T08:50:05.319Z,14.32
2022-11-02T08:54:06.858Z,14.50
2022-11-02T08:58:09.176Z,14.43
2022-11-02T09:02:10.799Z,14.42
2022-11-02T09:06:12.385Z,14.66
2022-11-02T09:10:13.848Z,14.66
2022-11-02T09:14:15.483Z,14.96
2022-11-02T09:18:16.955Z,15.07
2022-11-02T09:22:18.370Z,14.93
2022-11-02T09:26:19.942Z,15.09
2022-11-02T09:30:22.193Z,15.09
2022-11-02T09:34:23.715Z,15.26
2022-11-02T09:38:25.115Z,15.39
2022-11-02T09:42:53.284Z,15.39
2022-11-02T09:47:40.155Z,15.40
2022-11-02T09:51:20.045Z,15.58
2022-11-02T09:55:46.349Z,15.81
2022-11-02T09:59:47.750Z,15.87
2022-11-02T10:04:06.827Z,16.15
2022-11-02T10:08:25.313Z,15.89
2022-11-02T10:12:52.976Z,15.79
2022-11-02T10:17:16.543Z,15.45
2022-11-02T10:21:21.886Z,15.56
2022-11-02T10:25:24.205Z,15.59
2022-11-02T10:30:07.161Z,15.80
2022-11-02T10:34:26.106Z,15.84
2022-11-02T10:38:50.144Z,15.75
2022-11-02T10:57:03.778Z,15.25
2022-11-02T11:44:14.865Z,16.09
2022-11-02T15:52:00.499Z,12.08
2022-11-02T15:56:29.487Z,12.13
2022-11-02T16:00:33.471Z,12.07
2022-11-02T16:04:37.958Z,12.19
2022-11-02T16:08:44.137Z,12.06
2022-11-02T16:12:45.666Z,12.02
2022-11-02T16:16:51.252Z,12.15
2022-11-02T16:21:17.172Z,12.15
2022-11-02T16:25:46.149Z,12.14
2022-11-02T16:29:51.581Z,12.08
2022-11-02T22:34:33.693Z,8.86
2022-11-02T22:38:54.266Z,8.80
2022-11-02T22:42:55.927Z,8.45
2022-11-02T22:46:57.410Z,8.36
2022-11-02T22:50:59.031Z,8.79
2022-11-02T22:55:00.470Z,8.34
2022-11-02T22:59:02.856Z,8.40
2022-11-02T23:03:04.661Z,8.36
2022-11-02T23:07:06.415Z,8.38
2022-11-02T23:11:22.368Z,8.43
2022-11-02T23:15:23.849Z,8.53
2022-11-02T23:19:31.762Z,8.71
2022-11-02T23:23:52.122Z,8.68
2022-11-02T23:28:13.448Z,8.72
2022-11-02T23:32:26.638Z,8.53
2022-11-02T23:36:28.132Z,8.68
2022-11-02T23:40:29.812Z,8.66
2022-11-02T23:44:31.348Z,8.71
2022-11-02T23:48:32.890Z,8.85
2022-11-02T23:52:52.787Z,8.90
2022-11-02T23:56:54.285Z,8.61
